createdAt,value
2018-11-10T00:01:48.406Z,38.33
2018-11-10T00:04:51.410Z,39.83
2018-11-10T00:07:55.042Z,37.20
2018-11-10T00:10:59.053Z,39.60
2018-11-10T00:14:03.262Z,37.65
2018-11-10T00:17:07.845Z,35.28
2018-11-10T00:20:12.120Z,37.37
2018-11-10T00:23:15.707Z,39.23
2018-11-10T00:26:19.438Z,39.05
2018-11-10T00:29:24.029Z,38.80
2018-11-10T00:32:27.698Z,39.10
2018-11-10T00:35:31.787Z,39.37
2018-11-10T00:38:36.297Z,40.08
2018-11-10T00:41:41.018Z,40.23
2018-11-10T00:44:45.752Z,40.28
2018-11-10T00:47:49.286Z,39.38
2018-11-10T00:50:52.273Z,42.03
2018-11-10T00:53:55.305Z,40.20
2018-11-10T00:56:58.359Z,39.47
2018-11-10T01:00:02.002Z,40.17
2018-11-10T01:03:05.366Z,40.00
2018-11-10T01:06:08.955Z,41.67
2018-11-10T01:09:11.955Z,40.57
2018-11-10T01:12:14.947Z,41.43
2018-11-10T01:15:18.074Z,41.13
2018-11-10T01:18:22.106Z,41.05
2018-11-10T01:21:25.487Z,42.63
2018-11-10T01:24:28.553Z,43.45
2018-11-10T01:27:32.194Z,40.63
2018-11-10T01:30:35.248Z,45.55
2018-11-10T01:33:38.571Z,43.33
2018-11-10T01:36:41.631Z,45.50
2018-11-10T01:39:44.662Z,43.43
2018-11-10T01:42:48.691Z,45.80
2018-11-10T01:45:51.758Z,45.10
2018-11-10T01:48:54.818Z,46.47
2018-11-10T01:51:57.810Z,43.78
2018-11-10T01:55:01.619Z,42.62
2018-11-10T01:58:04.983Z,44.23
2018-11-10T02:01:08.006Z,44.15
2018-11-10T02:04:10.995Z,42.62
2018-11-10T02:07:14.502Z,43.37
2018-11-10T02:10:17.962Z,44.33
2018-11-10T02:13:21.131Z,43.60
2018-11-10T02:16:24.182Z,48.20
2018-11-10T02:19:27.221Z,45.38
2018-11-10T02:22:30.367Z,48.15
2018-11-10T02:25:34.088Z,44.97
2018-11-10T02:28:37.374Z,45.83
2018-11-10T02:31:41.187Z,43.65
2018-11-10T02:34:44.177Z,44.93
2018-11-10T02:37:47.374Z,42.23
2018-11-10T02:40:50.434Z,42.53
2018-11-10T02:43:53.451Z,40.97
2018-11-10T02:46:56.471Z,42.63
2018-11-10T02:50:00.158Z,42.75
2018-11-10T02:53:03.845Z,44.03
2018-11-10T02:56:06.839Z,39.60
2018-11-10T02:59:10.751Z,41.23
2018-11-10T03:02:13.740Z,41.60
2018-11-10T03:05:16.714Z,39.33
2018-11-10T03:08:19.724Z,39.07
2018-11-10T03:11:23.642Z,39.63
2018-11-10T03:14:26.625Z,38.37
2018-11-10T03:17:30.616Z,39.40
2018-11-10T03:20:33.635Z,41.73
2018-11-10T03:23:36.725Z,39.30
2018-11-10T03:26:39.744Z,40.07
2018-11-10T03:29:42.802Z,40.30
2018-11-10T03:32:46.931Z,40.20
2018-11-10T03:35:50.010Z,37.47
2018-11-10T03:38:52.998Z,39.65
2018-11-10T03:41:56.000Z,39.27
2018-11-10T03:44:59.082Z,40.23
2018-11-10T03:48:03.070Z,38.97
2018-11-10T03:51:07.047Z,39.07
2018-11-10T03:54:10.690Z,37.73
2018-11-10T03:57:13.702Z,37.93
2018-11-10T04:00:16.694Z,37.93
2018-11-10T04:03:19.682Z,37.33
2018-11-10T04:06:22.886Z,37.97
2018-11-10T04:09:26.482Z,38.23
2018-11-10T04:12:29.471Z,37.27
2018-11-10T04:15:32.923Z,39.95
2018-11-10T04:18:35.962Z,38.20
2018-11-10T04:21:39.467Z,37.70
2018-11-10T04:24:42.466Z,37.70
2018-11-10T04:27:46.124Z,39.65
2018-11-10T04:30:49.758Z,39.05
2018-11-10T04:33:52.858Z,36.53
2018-11-10T04:36:55.846Z,36.68
2018-11-10T04:39:58.844Z,37.45
2018-11-10T04:43:01.831Z,38.45
2018-11-10T04:46:05.434Z,37.83
2018-11-10T04:49:08.423Z,38.83
2018-11-10T04:52:11.414Z,36.98
2018-11-10T04:55:14.403Z,37.00
2018-11-10T04:58:17.398Z,38.10
2018-11-10T05:01:21.363Z,35.73
2018-11-10T05:04:25.013Z,37.30
2018-11-10T05:07:28.338Z,36.30
2018-11-10T05:10:31.403Z,36.67
2018-11-10T05:13:34.910Z,35.55
2018-11-10T05:16:37.890Z,36.23
2018-11-10T05:19:41.227Z,35.03
2018-11-10T05:22:44.282Z,37.70
2018-11-10T05:25:47.915Z,35.33
2018-11-10T05:28:51.078Z,35.93
2018-11-10T05:31:54.698Z,34.33
2018-11-10T05:34:58.266Z,35.47
2018-11-10T05:38:01.311Z,37.37
2018-11-10T05:41:05.350Z,36.17
2018-11-10T05:44:08.487Z,36.27
2018-11-10T05:47:11.563Z,35.83
2018-11-10T05:50:14.603Z,36.93
2018-11-10T05:53:18.590Z,35.50
2018-11-10T05:56:21.711Z,35.30
2018-11-10T05:59:25.373Z,36.03
2018-11-10T06:02:29.434Z,36.90
2018-11-10T06:05:32.999Z,36.13
2018-11-10T06:08:36.129Z,33.27
2018-11-10T06:11:39.738Z,34.77
2018-11-10T06:14:42.853Z,34.93
2018-11-10T06:17:46.822Z,33.97
2018-11-10T06:20:49.932Z,35.37
2018-11-10T06:23:52.990Z,32.55
2018-11-10T06:26:56.215Z,32.07
2018-11-10T06:29:59.994Z,33.87
2018-11-10T06:33:03.639Z,32.23
2018-11-10T06:36:07.435Z,32.35
2018-11-10T06:39:11.561Z,31.00
2018-11-10T06:42:14.725Z,30.43
2018-11-10T06:45:17.848Z,30.33
2018-11-10T06:48:20.906Z,31.20
2018-11-10T06:51:24.238Z,30.93
2018-11-10T06:54:28.438Z,28.52
2018-11-10T06:57:31.543Z,31.27
2018-11-10T07:00:34.614Z,28.60
2018-11-10T07:03:37.943Z,28.83
2018-11-10T07:06:40.998Z,28.65
2018-11-10T07:09:44.006Z,29.67
2018-11-10T07:12:47.729Z,29.00
2018-11-10T07:15:50.865Z,28.20
2018-11-10T07:18:53.984Z,27.50
2018-11-10T07:21:57.106Z,27.80
2018-11-10T07:25:01.197Z,29.00
2018-11-10T07:28:04.558Z,28.67
2018-11-10T07:31:07.317Z,28.60
2018-11-10T07:34:10.926Z,28.92
2018-11-10T07:37:14.936Z,28.67
2018-11-10T07:40:17.957Z,27.90
2018-11-10T07:43:21.558Z,29.27
2018-11-10T07:46:24.521Z,27.27
2018-11-10T07:49:27.601Z,27.62
2018-11-10T07:52:30.610Z,28.53
2018-11-10T07:55:34.098Z,27.63
2018-11-10T07:58:38.245Z,28.17
2018-11-10T08:01:41.965Z,27.85
2018-11-10T08:04:45.633Z,28.53
2018-11-10T08:07:50.301Z,27.58
2018-11-10T08:10:54.489Z,29.37
2018-11-10T08:13:57.985Z,28.47
2018-11-10T08:17:02.005Z,29.20
2018-11-10T08:20:06.218Z,29.20
2018-11-10T08:23:12.795Z,27.77
2018-11-10T08:26:17.857Z,27.80
2018-11-10T08:29:21.853Z,26.48
2018-11-10T08:32:26.187Z,29.47
2018-11-10T08:35:29.758Z,28.35
2018-11-10T08:38:35.289Z,29.42
2018-11-10T08:41:40.221Z,28.95
2018-11-10T08:44:44.193Z,28.80
2018-11-10T08:47:47.777Z,28.27
2018-11-10T08:50:50.865Z,30.93
2018-11-10T08:53:54.678Z,28.92
2018-11-10T08:56:58.307Z,28.38
2018-11-10T09:00:02.022Z,27.62
2018-11-10T09:03:06.029Z,30.68
2018-11-10T09:06:10.261Z,30.25
2018-11-10T09:09:13.933Z,28.83
2018-11-10T09:12:18.001Z,29.75
2018-11-10T09:15:21.554Z,28.23
2018-11-10T09:18:26.421Z,27.98
2018-11-10T09:21:29.670Z,26.73
2018-11-10T09:24:32.605Z,28.77
2018-11-10T09:27:36.158Z,28.47
2018-11-10T09:30:40.840Z,27.17
2018-11-10T09:33:45.486Z,27.05
2018-11-10T09:36:48.737Z,27.73
2018-11-10T09:39:53.158Z,29.00
2018-11-10T09:42:57.794Z,28.92
2018-11-10T09:46:01.396Z,26.82
2018-11-10T09:49:05.813Z,28.20
2018-11-10T09:52:10.034Z,30.02
2018-11-10T09:55:14.677Z,28.38
2018-11-10T09:58:18.451Z,29.37
2018-11-10T10:01:21.563Z,28.30
2018-11-10T10:04:25.007Z,28.45
2018-11-10T10:07:28.613Z,28.23
2018-11-10T10:10:31.694Z,29.23
2018-11-10T10:13:35.262Z,29.95
2018-11-10T10:16:40.089Z,29.03
2018-11-10T10:19:43.590Z,32.23
2018-11-10T10:22:47.949Z,29.27
2018-11-10T10:25:50.995Z,28.70
2018-11-10T10:28:55.928Z,30.30
2018-11-10T10:31:59.391Z,30.45
2018-11-10T10:35:03.222Z,29.98
2018-11-10T10:38:06.799Z,30.52
2018-11-10T10:41:11.290Z,30.15
2018-11-10T10:44:15.023Z,28.65
2018-11-10T10:47:17.984Z,28.35
2018-11-10T10:50:22.673Z,28.87
2018-11-10T10:53:25.936Z,29.92
2018-11-10T10:56:30.339Z,28.98
2018-11-10T10:59:34.221Z,29.95
2018-11-10T11:02:42.894Z,31.30
2018-11-10T11:05:52.054Z,30.77
2018-11-10T11:08:57.758Z,29.92
2018-11-10T11:12:01.358Z,29.10
2018-11-10T11:15:04.947Z,28.40
2018-11-10T11:18:08.061Z,30.57
2018-11-10T11:21:11.053Z,29.00
2018-11-10T11:24:14.528Z,28.35
2018-11-10T11:27:17.541Z,27.65
2018-11-10T11:30:22.526Z,26.05
2018-11-10T11:33:26.169Z,28.35
2018-11-10T11:36:30.528Z,27.67
2018-11-10T11:39:34.149Z,27.40
2018-11-10T11:42:38.493Z,28.00
2018-11-10T11:45:42.110Z,27.00
2018-11-10T11:48:46.413Z,27.10
2018-11-10T11:51:50.022Z,26.42
2018-11-10T11:54:54.736Z,26.80
2018-11-10T11:57:57.912Z,27.35
2018-11-10T12:01:02.378Z,26.25
2018-11-10T12:04:06.010Z,26.55
2018-11-10T12:07:09.267Z,25.68
2018-11-10T12:10:13.357Z,26.07
2018-11-10T12:13:17.481Z,26.75
2018-11-10T12:16:27.193Z,26.10
2018-11-10T12:19:24.954Z,24.43
2018-11-10T12:22:30.205Z,25.20
2018-11-10T12:25:34.013Z,24.05
2018-11-10T12:28:38.855Z,24.30
2018-11-10T12:31:43.830Z,23.27
2018-11-10T12:34:46.998Z,24.90
2018-11-10T12:37:50.005Z,35.92
2018-11-10T12:40:53.261Z,22.82
2018-11-10T12:43:56.295Z,23.75
2018-11-10T12:46:59.869Z,25.65
2018-11-10T12:50:04.235Z,26.27
2018-11-10T12:53:07.845Z,27.32
2018-11-10T12:56:11.425Z,25.08
2018-11-10T12:59:14.489Z,24.30
2018-11-10T13:02:17.519Z,23.45
2018-11-10T13:05:22.113Z,24.52
2018-11-10T13:08:27.140Z,30.32
2018-11-10T13:11:30.837Z,22.87
2018-11-10T13:14:34.961Z,24.67
2018-11-10T13:17:38.553Z,22.73
2018-11-10T13:20:42.105Z,23.15
2018-11-10T13:23:45.686Z,22.98
2018-11-10T13:26:50.009Z,22.62
2018-11-10T13:29:53.625Z,23.10
2018-11-10T13:32:57.061Z,26.77
2018-11-10T13:36:00.099Z,30.70
2018-11-10T13:39:04.788Z,29.80
2018-11-10T13:42:07.821Z,25.43
2018-11-10T13:45:12.607Z,34.33
2018-11-10T13:48:18.042Z,28.42
2018-11-10T13:51:22.335Z,27.62
2018-11-10T13:54:26.123Z,27.20
2018-11-10T13:57:29.746Z,28.25
2018-11-10T14:00:35.294Z,30.02
2018-11-10T14:03:38.866Z,37.73
2018-11-10T14:06:41.900Z,30.57
2018-11-10T14:09:45.201Z,27.82
2018-11-10T14:12:48.766Z,27.75
2018-11-10T14:15:52.995Z,30.37
2018-11-10T14:18:56.709Z,30.97
2018-11-10T14:22:00.966Z,30.70
2018-11-10T14:25:05.969Z,38.67
2018-11-10T14:28:09.541Z,33.00
2018-11-10T14:31:13.103Z,31.52
2018-11-10T14:34:16.714Z,36.45
2018-11-10T14:37:19.493Z,39.88
2018-11-10T14:40:23.553Z,36.45
2018-11-10T14:43:26.680Z,35.03
2018-11-10T14:46:30.181Z,31.73
2018-11-10T14:49:33.706Z,30.80
2018-11-10T14:52:37.268Z,39.00
2018-11-10T14:55:40.920Z,32.38
2018-11-10T14:58:45.089Z,31.00
2018-11-10T15:01:47.998Z,38.10
2018-11-10T15:04:52.290Z,32.15
2018-11-10T15:07:56.378Z,32.65
2018-11-10T15:10:59.705Z,35.40
2018-11-10T15:14:03.913Z,43.68
2018-11-10T15:17:07.336Z,34.13
2018-11-10T15:20:14.309Z,37.42
2018-11-10T15:23:18.619Z,31.75
2018-11-10T15:26:22.525Z,31.77
2018-11-10T15:29:26.619Z,31.40
2018-11-10T15:32:31.506Z,30.95
2018-11-10T15:35:36.950Z,30.77
2018-11-10T15:38:40.898Z,32.75
2018-11-10T15:41:45.381Z,31.65
2018-11-10T15:44:49.178Z,30.90
2018-11-10T15:47:52.945Z,28.77
2018-11-10T15:50:56.458Z,30.45
2018-11-10T15:54:00.098Z,29.85
2018-11-10T15:57:05.364Z,32.78
2018-11-10T16:00:13.306Z,31.82
2018-11-10T16:03:17.929Z,34.50
2018-11-10T16:06:22.646Z,36.13
2018-11-10T16:09:27.236Z,37.93
2018-11-10T16:12:31.586Z,37.90
2018-11-10T16:15:36.363Z,36.60
2018-11-10T16:18:40.686Z,36.33
2018-11-10T16:21:45.110Z,37.00
2018-11-10T16:24:49.313Z,36.77
2018-11-10T16:27:52.907Z,37.40
2018-11-10T16:30:56.958Z,41.55
2018-11-10T16:34:00.662Z,43.48
2018-11-10T16:37:04.697Z,44.70
2018-11-10T16:40:10.694Z,43.50
2018-11-10T16:43:14.337Z,39.98
2018-11-10T16:46:17.965Z,39.15
2018-11-10T16:49:21.976Z,40.75
2018-11-10T16:52:25.037Z,41.73
2018-11-10T16:55:29.341Z,43.85
2018-11-10T16:58:32.795Z,42.75
2018-11-10T17:01:37.074Z,46.15
2018-11-10T17:04:40.707Z,45.73
2018-11-10T17:07:43.733Z,44.90
2018-11-10T17:10:47.845Z,45.27
2018-11-10T17:13:52.705Z,47.13
2018-11-10T17:16:56.418Z,49.07
2018-11-10T17:20:00.818Z,49.18
2018-11-10T17:23:05.325Z,59.77
2018-11-10T17:26:08.982Z,54.13
2018-11-10T17:29:13.566Z,50.75
2018-11-10T17:32:18.133Z,51.08
2018-11-10T17:35:21.755Z,52.85
2018-11-10T17:38:24.682Z,52.53
2018-11-10T17:41:27.474Z,51.83
2018-11-10T17:44:31.709Z,49.73
2018-11-10T17:47:34.497Z,48.23
2018-11-10T17:50:37.290Z,50.88
2018-11-10T17:53:40.121Z,47.50
2018-11-10T17:56:43.074Z,47.05
2018-11-10T17:59:46.020Z,48.30
2018-11-10T18:02:55.993Z,48.52
2018-11-10T18:05:58.902Z,48.50
2018-11-10T18:09:02.309Z,48.30
2018-11-10T18:12:06.286Z,49.10
2018-11-10T18:15:10.218Z,48.92
2018-11-10T18:18:13.342Z,48.98
2018-11-10T18:21:16.358Z,48.50
2018-11-10T18:24:20.609Z,51.15
2018-11-10T18:27:23.666Z,54.47
2018-11-10T18:30:27.234Z,54.85
2018-11-10T18:33:30.094Z,55.97
2018-11-10T18:36:32.958Z,57.43
2018-11-10T18:39:35.986Z,59.48
2018-11-10T18:42:38.812Z,56.67
2018-11-10T18:45:41.778Z,58.40
2018-11-10T18:48:44.757Z,62.75
2018-11-10T18:51:47.948Z,64.70
2018-11-10T18:54:50.781Z,65.13
2018-11-10T18:57:54.401Z,62.45
2018-11-10T19:00:57.225Z,64.07
2018-11-10T19:04:00.232Z,61.80
2018-11-10T19:07:04.334Z,58.93
2018-11-10T19:10:10.074Z,57.13
2018-11-10T19:13:14.374Z,56.35
2018-11-10T19:16:18.436Z,57.83
2018-11-10T19:19:22.079Z,54.40
2018-11-10T19:22:26.749Z,55.10
2018-11-10T19:25:31.533Z,63.47
2018-11-10T19:28:36.372Z,58.45
2018-11-10T19:31:40.391Z,54.33
2018-11-10T19:34:44.142Z,59.70
2018-11-10T19:37:48.026Z,57.15
2018-11-10T19:40:52.741Z,63.23
2018-11-10T19:43:57.381Z,64.23
2018-11-10T19:47:00.767Z,62.03
2018-11-10T19:50:04.210Z,65.87
2018-11-10T19:53:07.054Z,60.93
2018-11-10T19:56:11.255Z,65.83
2018-11-10T19:59:15.422Z,70.20
2018-11-10T20:02:18.369Z,70.10
2018-11-10T20:05:21.201Z,70.00
2018-11-10T20:08:23.986Z,70.87
2018-11-10T20:11:28.008Z,68.20
2018-11-10T20:14:31.735Z,67.62
2018-11-10T20:17:37.399Z,61.57
2018-11-10T20:20:43.274Z,63.92
2018-11-10T20:23:46.963Z,65.22
2018-11-10T20:26:49.894Z,63.80
2018-11-10T20:29:54.593Z,61.28
2018-11-10T20:32:59.262Z,69.53
2018-11-10T20:36:03.770Z,64.50
2018-11-10T20:39:08.298Z,77.20
2018-11-10T20:42:12.201Z,78.50
2018-11-10T20:45:19.852Z,78.83
2018-11-10T20:48:23.313Z,80.83
2018-11-10T20:51:27.302Z,74.10
2018-11-10T20:54:31.806Z,70.77
2018-11-10T20:57:36.089Z,72.97
2018-11-10T21:00:39.034Z,74.57
2018-11-10T21:03:43.597Z,74.37
2018-11-10T21:06:48.569Z,70.97
2018-11-10T21:09:52.425Z,69.23
2018-11-10T21:12:55.531Z,64.58
2018-11-10T21:15:59.313Z,69.93
2018-11-10T21:19:02.310Z,72.27
2018-11-10T21:22:10.081Z,68.93
2018-11-10T21:25:16.000Z,67.50
2018-11-10T21:28:19.696Z,71.40
2018-11-10T21:31:23.582Z,68.50
2018-11-10T21:34:27.127Z,75.63
2018-11-10T21:37:30.182Z,78.90
2018-11-10T21:40:33.858Z,75.70
2018-11-10T21:43:37.408Z,75.13
2018-11-10T21:46:41.062Z,75.97
2018-11-10T21:49:44.712Z,73.83
2018-11-10T21:52:47.781Z,74.55
2018-11-10T21:55:51.617Z,74.27
2018-11-10T21:58:55.204Z,70.90
2018-11-10T22:01:59.129Z,77.97
2018-11-10T22:05:03.509Z,69.73
2018-11-10T22:08:07.253Z,71.02
2018-11-10T22:11:11.570Z,73.40
2018-11-10T22:14:15.157Z,71.57
2018-11-10T22:17:18.547Z,71.28
2018-11-10T22:20:23.509Z,68.80
2018-11-10T22:23:28.365Z,68.13
2018-11-10T22:26:32.531Z,65.37
2018-11-10T22:29:36.196Z,63.40
2018-11-10T22:32:41.130Z,67.03
2018-11-10T22:35:44.925Z,57.70
2018-11-10T22:38:48.694Z,59.53
2018-11-10T22:41:52.259Z,63.67
2018-11-10T22:44:55.825Z,64.23
2018-11-10T22:48:00.117Z,59.30
2018-11-10T22:51:03.140Z,57.93
2018-11-10T22:54:06.538Z,56.50
2018-11-10T22:57:10.161Z,57.87
2018-11-10T23:00:30.645Z,51.60
2018-11-10T23:03:35.145Z,54.15
2018-11-10T23:06:39.037Z,56.73
2018-11-10T23:09:43.045Z,54.47
2018-11-10T23:12:47.954Z,58.10
2018-11-10T23:15:50.914Z,57.67
2018-11-10T23:18:55.253Z,63.00
2018-11-10T23:22:00.029Z,62.38
2018-11-10T23:25:03.662Z,66.70
2018-11-10T23:32:25.920Z,63.57
2018-11-10T23:35:29.751Z,72.33
2018-11-10T23:38:32.745Z,74.90
2018-11-10T23:41:35.713Z,66.77
2018-11-10T23:44:39.365Z,64.47
2018-11-10T23:47:42.942Z,67.83
2018-11-10T23:50:46.609Z,63.43
2018-11-10T23:53:50.513Z,61.17
2018-11-10T23:56:54.960Z,68.27
2018-11-10T23:59:58.709Z,65.90
